Time;durP1;ratioP1;P1;durP2;ratioP2;P2;SDS_P1;SDS_P2;PMS_P1;PMS_P2;Temp;Humidity;BMP_temperature;BMP_pressure;BME280_temperature;BME280_humidity;BME280_pressure;Samples;Min_cycle;Max_cycle;Signal;HPM_P1;HPM_P2
2021/04/07 00:00:48;;;;;;;4.75;3.45;;;;;;;;;;5046131;28;20313;-41
2021/04/07 00:03:13;;;;;;;3.60;3.40;;;;;;;;;;5049729;28;20649;-42
2021/04/07 00:05:40;;;;;;;3.37;3.17;;;;;;;;;;5048306;28;20175;-42
2021/04/07 00:08:06;;;;;;;4.03;3.40;;;;;;;;;;5049535;28;20581;-43
2021/04/07 00:10:32;;;;;;;3.63;3.33;;;;;;;;;;5045200;28;20600;-44
2021/04/07 00:12:58;;;;;;;4.17;3.70;;;;;;;;;;5049727;28;20176;-43
2021/04/07 00:15:24;;;;;;;4.37;4.00;;;;;;;;;;5047976;28;21111;-43
2021/04/07 00:17:50;;;;;;;3.80;3.57;;;;;;;;;;5049043;28;20605;-43
2021/04/07 00:20:17;;;;;;;3.57;3.27;;;;;;;;;;5048572;28;20191;-43
2021/04/07 00:22:43;;;;;;;3.87;3.57;;;;;;;;;;5044875;28;20219;-44
2021/04/07 00:25:08;;;;;;;3.93;3.63;;;;;;;;;;5045033;28;20620;-42
2021/04/07 00:27:36;;;;;;;5.67;3.70;;;;;;;;;;5050219;28;20613;-42
2021/04/07 00:30:02;;;;;;;4.03;3.57;;;;;;;;;;5049014;28;20612;-42
2021/04/07 00:32:27;;;;;;;3.80;3.40;;;;;;;;;;5043594;28;20610;-42
2021/04/07 00:34:52;;;;;;;3.45;3.13;;;;;;;;;;5046626;28;20170;-42
2021/04/07 00:37:17;;;;;;;6.47;3.90;;;;;;;;;;5048697;28;20181;-42
2021/04/07 00:39:42;;;;;;;5.60;3.40;;;;;;;;;;5047231;28;20184;-41
2021/04/07 00:42:08;;;;;;;3.80;3.50;;;;;;;;;;5048810;28;20729;-42
2021/04/07 00:44:33;;;;;;;3.60;3.33;;;;;;;;;;5046818;28;20190;-42
2021/04/07 00:46:58;;;;;;;3.80;3.60;;;;;;;;;;5044546;28;20210;-42
2021/04/07 00:49:24;;;;;;;3.43;3.10;;;;;;;;;;5048813;28;20697;-42
2021/04/07 00:51:50;;;;;;;3.53;3.23;;;;;;;;;;5044901;28;20309;-43
2021/04/07 00:54:15;;;;;;;6.13;3.83;;;;;;;;;;5046843;28;20178;-41
2021/04/07 00:56:40;;;;;;;3.70;3.50;;;;;;;;;;5048137;28;20198;-42
2021/04/07 00:59:06;;;;;;;3.43;3.23;;;;;;;;;;5039530;28;20245;-43
2021/04/07 01:04:34;;;;;;;3.30;3.10;;;;;;;;;;5038347;28;20671;-43
2021/04/07 01:07:00;;;;;;;3.63;3.20;;;;;;;;;;5043714;28;20613;-42
2021/04/07 01:09:26;;;;;;;3.13;2.93;;;;;;;;;;5040129;28;20201;-43
2021/04/07 01:11:51;;;;;;;3.73;3.43;;;;;;;;;;5046692;28;20622;-43
2021/04/07 01:14:16;;;;;;;2.90;2.50;;;;;;;;;;5047261;28;20554;-42
2021/04/07 01:16:42;;;;;;;2.83;2.73;;;;;;;;;;5048705;28;20163;-43
2021/04/07 01:19:08;;;;;;;5.43;3.50;;;;;;;;;;5045386;28;20186;-43
2021/04/07 01:21:33;;;;;;;3.63;3.33;;;;;;;;;;5047147;28;20184;-43
2021/04/07 01:23:58;;;;;;;3.70;3.40;;;;;;;;;;5046740;28;20602;-43
2021/04/07 01:26:23;;;;;;;3.23;2.97;;;;;;;;;;5045436;28;20704;-43
2021/04/07 01:28:49;;;;;;;2.97;2.80;;;;;;;;;;5045528;28;20258;-43
2021/04/07 01:31:14;;;;;;;3.13;2.93;;;;;;;;;;5046331;28;20169;-43
2021/04/07 01:33:41;;;;;;;3.43;3.13;;;;;;;;;;5048751;28;20232;-44
2021/04/07 01:36:06;;;;;;;3.27;2.97;;;;;;;;;;5048563;28;20176;-43
2021/04/07 01:38:31;;;;;;;2.88;2.67;;;;;;;;;;5047220;28;20606;-42
2021/04/07 01:40:57;;;;;;;3.20;2.90;;;;;;;;;;5047419;28;20544;-42
2021/04/07 01:43:22;;;;;;;3.50;2.97;;;;;;;;;;5047020;28;20187;-42
2021/04/07 01:45:48;;;;;;;3.17;2.90;;;;;;;;;;5040525;28;20184;-42
2021/04/07 01:48:14;;;;;;;5.07;3.23;;;;;;;;;;5048171;28;20301;-42
2021/04/07 01:50:40;;;;;;;2.77;2.57;;;;;;;;;;5047849;28;20563;-42
2021/04/07 01:53:06;;;;;;;2.47;2.37;;;;;;;;;;5048665;28;20856;-42
2021/04/07 01:55:31;;;;;;;4.00;2.60;;;;;;;;;;5045387;28;20661;-43
2021/04/07 01:57:56;;;;;;;3.20;2.30;;;;;;;;;;5046959;28;20175;-42
2021/04/07 02:00:22;;;;;;;2.73;2.50;;;;;;;;;;5046071;28;20176;-43
2021/04/07 02:02:47;;;;;;;2.77;2.50;;;;;;;;;;5046877;28;20718;-42
2021/04/07 02:05:13;;;;;;;2.80;2.50;;;;;;;;;;5047531;28;20179;-43
2021/04/07 02:07:38;;;;;;;2.10;2.00;;;;;;;;;;5047162;28;20211;-41
2021/04/07 02:10:07;;;;;;;3.10;2.80;;;;;;;;;;5047824;28;20570;-42
2021/04/07 02:12:32;;;;;;;2.07;1.97;;;;;;;;;;5046474;28;20266;-42
2021/04/07 02:14:57;;;;;;;2.47;2.27;;;;;;;;;;5045908;28;20689;-42
2021/04/07 02:17:23;;;;;;;3.03;2.83;;;;;;;;;;5042086;28;20544;-43
2021/04/07 02:19:48;;;;;;;3.10;2.90;;;;;;;;;;5046777;28;20183;-44
2021/04/07 02:22:14;;;;;;;2.90;2.70;;;;;;;;;;5047520;28;20685;-42
2021/04/07 02:24:41;;;;;;;2.70;2.60;;;;;;;;;;5047248;28;20187;-42
2021/04/07 02:27:13;;;;;;;4.33;3.50;;;;;;;;;;5046710;28;20610;-43
2021/04/07 02:29:39;;;;;;;2.73;2.37;;;;;;;;;;5046047;28;20789;-43
2021/04/07 02:32:05;;;;;;;2.67;2.57;;;;;;;;;;5041775;28;20685;-43
2021/04/07 02:34:31;;;;;;;2.53;2.33;;;;;;;;;;5046536;28;20621;-41
2021/04/07 02:36:56;;;;;;;3.07;2.87;;;;;;;;;;5047391;28;20191;-43
2021/04/07 02:39:21;;;;;;;3.43;3.13;;;;;;;;;;5045434;28;21181;-43
2021/04/07 02:41:46;;;;;;;2.97;2.78;;;;;;;;;;5045341;28;20195;-42
2021/04/07 02:44:11;;;;;;;3.77;3.47;;;;;;;;;;5047170;28;20179;-42
2021/04/07 02:46:37;;;;;;;3.05;2.85;;;;;;;;;;5043896;28;20175;-42
2021/04/07 02:49:02;;;;;;;3.37;3.07;;;;;;;;;;5046634;28;20290;-43
2021/04/07 02:51:27;;;;;;;4.38;3.97;;;;;;;;;;5046727;28;20266;-42
2021/04/07 02:53:52;;;;;;;3.77;3.50;;;;;;;;;;5035770;28;20168;-43
2021/04/07 02:56:18;;;;;;;5.05;3.88;;;;;;;;;;5044171;28;20216;-42
2021/04/07 02:58:43;;;;;;;4.40;4.10;;;;;;;;;;5049066;28;20186;-42
2021/04/07 03:01:08;;;;;;;4.30;4.00;;;;;;;;;;5044628;28;20190;-43
2021/04/07 03:03:33;;;;;;;4.30;4.00;;;;;;;;;;5051009;28;20174;-42
2021/04/07 03:05:58;;;;;;;4.17;3.70;;;;;;;;;;5048918;28;20183;-43
2021/04/07 03:08:23;;;;;;;3.43;3.23;;;;;;;;;;5051349;28;20198;-42
2021/04/07 03:10:48;;;;;;;4.47;4.17;;;;;;;;;;5049140;28;20176;-41
2021/04/07 03:13:14;;;;;;;4.50;4.10;;;;;;;;;;5050882;28;20179;-42
2021/04/07 03:15:39;;;;;;;5.13;4.00;;;;;;;;;;5048758;28;20638;-41
2021/04/07 03:18:04;;;;;;;4.30;3.92;;;;;;;;;;5047798;28;20183;-42
2021/04/07 03:20:29;;;;;;;4.80;3.47;;;;;;;;;;5048140;28;20196;-43
2021/04/07 03:22:54;;;;;;;6.05;3.83;;;;;;;;;;5050780;28;20218;-41
2021/04/07 03:25:20;;;;;;;5.37;4.83;;;;;;;;;;5050179;28;20512;-42
2021/04/07 03:27:45;;;;;;;4.70;4.30;;;;;;;;;;5045917;28;20196;-41
2021/04/07 03:30:10;;;;;;;4.00;3.70;;;;;;;;;;5049797;28;20249;-42
2021/04/07 03:32:36;;;;;;;4.43;4.03;;;;;;;;;;5047120;28;20184;-42
2021/04/07 03:35:01;;;;;;;4.77;3.80;;;;;;;;;;5049737;28;20214;-42
2021/04/07 03:37:26;;;;;;;4.47;4.07;;;;;;;;;;5043528;28;20200;-42
2021/04/07 03:39:51;;;;;;;4.67;4.27;;;;;;;;;;5040817;28;20229;-42
2021/04/07 03:42:16;;;;;;;5.97;4.35;;;;;;;;;;5050194;28;20250;-42
2021/04/07 03:44:41;;;;;;;4.80;4.30;;;;;;;;;;5047676;28;20168;-42
2021/04/07 03:47:07;;;;;;;4.23;3.73;;;;;;;;;;5043428;28;20190;-42
2021/04/07 03:49:32;;;;;;;5.00;4.40;;;;;;;;;;5043170;28;20331;-41
2021/04/07 03:51:57;;;;;;;4.53;4.13;;;;;;;;;;5039652;28;20254;-41
2021/04/07 03:54:23;;;;;;;4.73;4.33;;;;;;;;;;5049308;28;20183;-42
2021/04/07 03:56:49;;;;;;;5.00;4.30;;;;;;;;;;5049415;28;20180;-42
2021/04/07 03:59:14;;;;;;;4.50;4.20;;;;;;;;;;5042372;28;20594;-43
2021/04/07 04:01:39;;;;;;;5.05;3.95;;;;;;;;;;5040324;28;20202;-43
2021/04/07 04:04:04;;;;;;;5.03;4.63;;;;;;;;;;5049337;28;20187;-42
2021/04/07 04:06:29;;;;;;;5.50;4.80;;;;;;;;;;5049605;28;20182;-42
2021/04/07 04:08:54;;;;;;;5.38;4.88;;;;;;;;;;5046880;28;20208;-42
2021/04/07 04:11:20;;;;;;;6.37;5.63;;;;;;;;;;5045717;28;20184;-42
2021/04/07 04:13:45;;;;;;;5.97;5.20;;;;;;;;;;5048782;28;20182;-40
2021/04/07 04:16:10;;;;;;;5.70;5.20;;;;;;;;;;5049510;28;20680;-41
2021/04/07 04:18:35;;;;;;;5.70;5.20;;;;;;;;;;5046051;28;20281;-41
2021/04/07 04:21:00;;;;;;;5.73;5.30;;;;;;;;;;5048631;28;20262;-42
2021/04/07 04:23:25;;;;;;;6.57;5.30;;;;;;;;;;5048572;28;20511;-43
2021/04/07 04:25:51;;;;;;;6.13;5.53;;;;;;;;;;5045370;28;20178;-42
2021/04/07 04:28:16;;;;;;;6.20;5.60;;;;;;;;;;5047836;28;20766;-41
2021/04/07 04:30:41;;;;;;;6.10;5.50;;;;;;;;;;5047084;28;20177;-41
2021/04/07 04:33:06;;;;;;;5.50;4.90;;;;;;;;;;5044968;28;20185;-41
2021/04/07 04:35:32;;;;;;;5.70;5.20;;;;;;;;;;5049983;28;20172;-43
2021/04/07 04:37:57;;;;;;;6.60;5.53;;;;;;;;;;5048221;28;20171;-44
2021/04/07 04:40:22;;;;;;;8.37;5.70;;;;;;;;;;5049079;28;20593;-44
2021/04/07 04:42:47;;;;;;;7.20;6.50;;;;;;;;;;5049326;28;20234;-42
2021/04/07 04:45:14;;;;;;;6.40;5.80;;;;;;;;;;5045266;28;20198;-42
2021/04/07 04:47:39;;;;;;;6.53;5.87;;;;;;;;;;5047964;28;20245;-42
2021/04/07 04:50:05;;;;;;;7.50;6.80;;;;;;;;;;5044531;28;21207;-42
2021/04/07 04:52:30;;;;;;;6.53;5.93;;;;;;;;;;5047372;28;20768;-42
2021/04/07 04:54:55;;;;;;;7.30;6.70;;;;;;;;;;5041677;28;20211;-42
2021/04/07 04:57:21;;;;;;;7.27;6.57;;;;;;;;;;5044306;28;20172;-42
2021/04/07 04:59:46;;;;;;;6.97;6.30;;;;;;;;;;5042761;28;20202;-43
2021/04/07 05:02:11;;;;;;;7.20;6.50;;;;;;;;;;5047497;28;20203;-44
2021/04/07 05:04:36;;;;;;;7.20;6.40;;;;;;;;;;5048284;28;20175;-42
2021/04/07 05:07:02;;;;;;;7.13;6.37;;;;;;;;;;5047730;28;20666;-42
2021/04/07 05:09:27;;;;;;;7.47;6.77;;;;;;;;;;5044767;28;20587;-43
2021/04/07 05:11:52;;;;;;;7.20;6.50;;;;;;;;;;5046027;28;20501;-43
2021/04/07 05:14:18;;;;;;;9.10;6.87;;;;;;;;;;5044177;28;20672;-43
2021/04/07 05:16:43;;;;;;;7.20;6.50;;;;;;;;;;5040586;28;20820;-42
2021/04/07 05:19:08;;;;;;;8.63;7.20;;;;;;;;;;5048384;28;20184;-43
2021/04/07 05:21:33;;;;;;;8.00;7.30;;;;;;;;;;5044549;28;20187;-41
2021/04/07 05:23:58;;;;;;;6.90;6.20;;;;;;;;;;5047703;28;20184;-43
2021/04/07 05:26:24;;;;;;;7.47;6.77;;;;;;;;;;5047347;28;20171;-41
2021/04/07 05:28:49;;;;;;;7.53;6.67;;;;;;;;;;5047381;28;20194;-41
2021/04/07 05:31:15;;;;;;;7.27;6.63;;;;;;;;;;5038329;28;20251;-41
2021/04/07 05:33:41;;;;;;;9.63;6.80;;;;;;;;;;5047595;28;20255;-42
2021/04/07 05:36:07;;;;;;;7.93;7.13;;;;;;;;;;5047008;28;20274;-42
2021/04/07 05:38:33;;;;;;;7.80;6.80;;;;;;;;;;5043790;28;20594;-43
2021/04/07 05:40:58;;;;;;;7.80;7.00;;;;;;;;;;5043702;28;20632;-41
2021/04/07 05:43:24;;;;;;;8.07;6.90;;;;;;;;;;5046374;28;20667;-42
2021/04/07 05:45:49;;;;;;;7.80;7.00;;;;;;;;;;5044328;28;20202;-43
2021/04/07 05:48:15;;;;;;;8.07;7.37;;;;;;;;;;5048632;28;20218;-41
2021/04/07 05:50:47;;;;;;;8.13;7.33;;;;;;;;;;5041308;28;20655;-41
2021/04/07 05:53:13;;;;;;;7.80;7.00;;;;;;;;;;5036522;28;20184;-42
2021/04/07 05:55:42;;;;;;;8.20;7.50;;;;;;;;;;5041716;28;20809;-43
2021/04/07 05:58:08;;;;;;;8.00;7.10;;;;;;;;;;5042421;28;20217;-42
2021/04/07 06:00:33;;;;;;;7.63;6.93;;;;;;;;;;5038831;28;20626;-42
2021/04/07 06:03:00;;;;;;;7.60;6.90;;;;;;;;;;5042857;28;20924;-42
2021/04/07 06:05:27;;;;;;;8.83;7.43;;;;;;;;;;5047908;28;20664;-43
2021/04/07 06:07:52;;;;;;;10.20;8.40;;;;;;;;;;5041325;28;20600;-42
2021/04/07 06:10:17;;;;;;;10.30;9.03;;;;;;;;;;5042142;28;21446;-43
2021/04/07 06:12:43;;;;;;;10.13;8.97;;;;;;;;;;5042257;28;20237;-42
2021/04/07 06:15:09;;;;;;;10.33;8.40;;;;;;;;;;5041722;28;20191;-43
2021/04/07 06:17:35;;;;;;;11.97;8.33;;;;;;;;;;5040225;28;20199;-43
2021/04/07 06:20:00;;;;;;;9.37;8.40;;;;;;;;;;5038833;28;20594;-43
2021/04/07 06:22:25;;;;;;;10.10;8.90;;;;;;;;;;5042972;28;20617;-43
2021/04/07 06:24:50;;;;;;;10.40;9.38;;;;;;;;;;5042853;28;20202;-42
2021/04/07 06:27:16;;;;;;;9.80;8.52;;;;;;;;;;5043809;28;20183;-42
2021/04/07 06:29:41;;;;;;;10.27;9.13;;;;;;;;;;5036131;28;20219;-42
2021/04/07 06:32:06;;;;;;;10.20;9.03;;;;;;;;;;5042897;28;20176;-42
2021/04/07 06:34:31;;;;;;;29.63;18.40;;;;;;;;;;5043553;28;20207;-43
2021/04/07 06:36:56;;;;;;;14.33;11.33;;;;;;;;;;5041599;28;20677;-43
2021/04/07 06:39:21;;;;;;;36.88;22.77;;;;;;;;;;5043047;28;20263;-42
2021/04/07 06:41:47;;;;;;;24.73;16.35;;;;;;;;;;5041543;28;20203;-42
2021/04/07 06:44:12;;;;;;;16.20;12.90;;;;;;;;;;5038295;28;20582;-43
2021/04/07 06:46:37;;;;;;;11.60;10.27;;;;;;;;;;5040192;28;20180;-43
2021/04/07 06:49:03;;;;;;;12.03;9.77;;;;;;;;;;5036021;28;20202;-42
2021/04/07 06:51:29;;;;;;;10.27;8.50;;;;;;;;;;5040760;28;20186;-42
2021/04/07 06:53:55;;;;;;;9.47;7.57;;;;;;;;;;5038415;28;20611;-43
2021/04/07 06:56:20;;;;;;;13.17;9.57;;;;;;;;;;5038561;28;21240;-43
2021/04/07 06:58:46;;;;;;;21.80;15.63;;;;;;;;;;5041963;28;20237;-41
2021/04/07 07:01:11;;;;;;;13.90;10.60;;;;;;;;;;5042871;28;20214;-42
2021/04/07 07:03:36;;;;;;;9.53;8.57;;;;;;;;;;5043952;28;20180;-41
2021/04/07 07:06:01;;;;;;;8.97;7.67;;;;;;;;;;5038586;28;20604;-41
2021/04/07 07:08:29;;;;;;;9.30;6.70;;;;;;;;;;5049184;28;20176;-42
2021/04/07 07:10:55;;;;;;;9.90;7.53;;;;;;;;;;5043914;28;20218;-42
2021/04/07 07:13:24;;;;;;;7.83;7.03;;;;;;;;;;5039259;28;20640;-42
2021/04/07 07:15:50;;;;;;;7.70;6.37;;;;;;;;;;5040090;28;20196;-42
2021/04/07 07:18:27;;;;;;;10.40;8.30;;;;;;;;;;5039936;28;20605;-43
2021/04/07 07:20:53;;;;;;;9.87;7.70;;;;;;;;;;5038891;28;20181;-43
2021/04/07 07:23:21;;;;;;;8.90;6.87;;;;;;;;;;5042736;28;20951;-42
2021/04/07 07:25:53;;;;;;;9.93;6.97;;;;;;;;;;5043909;28;20193;-42
2021/04/07 07:28:18;;;;;;;7.87;7.07;;;;;;;;;;5044477;28;20643;-42
2021/04/07 07:30:43;;;;;;;8.37;7.47;;;;;;;;;;5043956;28;20627;-44
2021/04/07 07:33:13;;;;;;;8.30;7.40;;;;;;;;;;5043612;28;20168;-43
2021/04/07 07:35:38;;;;;;;8.97;8.07;;;;;;;;;;5042740;28;20172;-43
2021/04/07 07:38:03;;;;;;;9.33;7.27;;;;;;;;;;5039144;28;20602;-42
2021/04/07 07:40:28;;;;;;;11.30;7.83;;;;;;;;;;5039537;28;20899;-43
2021/04/07 07:42:54;;;;;;;10.50;7.50;;;;;;;;;;5037004;28;20171;-43
2021/04/07 07:45:30;;;;;;;8.87;7.47;;;;;;;;;;5047382;28;20175;-42
2021/04/07 07:47:59;;;;;;;8.87;7.37;;;;;;;;;;5044929;28;20209;-42
2021/04/07 07:50:33;;;;;;;8.30;7.43;;;;;;;;;;5047541;28;20711;-43
2021/04/07 07:52:58;;;;;;;8.73;7.57;;;;;;;;;;5041679;28;20598;-43
2021/04/07 07:55:23;;;;;;;9.23;8.27;;;;;;;;;;5046906;28;21521;-41
2021/04/07 07:57:53;;;;;;;11.00;8.83;;;;;;;;;;5046940;28;20173;-42
2021/04/07 08:00:19;;;;;;;13.00;9.27;;;;;;;;;;5043964;28;20530;-42
2021/04/07 08:02:44;;;;;;;11.43;9.87;;;;;;;;;;5030479;28;20599;-42
2021/04/07 08:05:16;;;;;;;11.33;10.13;;;;;;;;;;5042466;28;20179;-42
2021/04/07 08:07:41;;;;;;;13.70;10.67;;;;;;;;;;5027845;28;20179;-42
2021/04/07 08:10:07;;;;;;;13.20;10.23;;;;;;;;;;5041988;28;21194;-42
2021/04/07 08:12:32;;;;;;;12.10;9.90;;;;;;;;;;5049477;28;20221;-41
2021/04/07 08:14:58;;;;;;;12.10;9.17;;;;;;;;;;5046475;28;20591;-44
2021/04/07 08:17:23;;;;;;;11.33;8.60;;;;;;;;;;5044857;28;20244;-43
2021/04/07 08:19:49;;;;;;;9.60;7.73;;;;;;;;;;5049718;28;20191;-42
2021/04/07 08:22:14;;;;;;;9.37;7.70;;;;;;;;;;5049938;28;20342;-41
2021/04/07 08:24:40;;;;;;;12.27;7.00;;;;;;;;;;5046446;28;20180;-43
2021/04/07 08:27:06;;;;;;;8.20;7.07;;;;;;;;;;5046188;28;20644;-41
2021/04/07 08:29:32;;;;;;;9.90;7.03;;;;;;;;;;5041489;28;20445;-40
2021/04/07 08:31:57;;;;;;;8.70;7.23;;;;;;;;;;5048779;28;20631;-42
2021/04/07 08:34:23;;;;;;;9.30;8.30;;;;;;;;;;5048562;28;20251;-43
2021/04/07 08:36:48;;;;;;;8.40;7.50;;;;;;;;;;5048271;28;20166;-42
2021/04/07 08:39:15;;;;;;;11.20;9.13;;;;;;;;;;5049339;28;20598;-44
2021/04/07 08:41:41;;;;;;;10.57;9.47;;;;;;;;;;5044416;28;20218;-43
2021/04/07 08:44:06;;;;;;;9.03;8.13;;;;;;;;;;5029603;28;21066;-43
2021/04/07 08:46:42;;;;;;;11.93;9.37;;;;;;;;;;5037329;28;20258;-42
2021/04/07 08:49:08;;;;;;;11.50;8.67;;;;;;;;;;5043022;28;20213;-43
2021/04/07 08:51:33;;;;;;;8.87;8.07;;;;;;;;;;5047376;28;20586;-43
2021/04/07 08:53:59;;;;;;;9.67;7.50;;;;;;;;;;5047922;28;20247;-42
2021/04/07 08:56:31;;;;;;;8.37;7.53;;;;;;;;;;5048362;28;20226;-43
2021/04/07 08:58:57;;;;;;;8.23;7.27;;;;;;;;;;5049010;28;20201;-42
2021/04/07 09:01:32;;;;;;;9.30;8.30;;;;;;;;;;5049103;28;20595;-42
2021/04/07 09:04:11;;;;;;;11.00;8.40;;;;;;;;;;5048519;28;20581;-44
2021/04/07 09:06:37;;;;;;;8.80;7.37;;;;;;;;;;5048841;28;20673;-43
2021/04/07 09:09:08;;;;;;;8.40;7.60;;;;;;;;;;5048813;28;21267;-42
2021/04/07 09:11:37;;;;;;;7.97;7.17;;;;;;;;;;5048726;28;20190;-41
2021/04/07 09:14:06;;;;;;;12.13;8.40;;;;;;;;;;5047815;28;20594;-42
2021/04/07 09:16:32;;;;;;;9.07;8.07;;;;;;;;;;5048790;28;20690;-43
2021/04/07 09:19:10;;;;;;;9.30;7.80;;;;;;;;;;5048576;28;20597;-41
2021/04/07 09:21:36;;;;;;;10.00;8.00;;;;;;;;;;5048525;28;20570;-42
2021/04/07 09:24:02;;;;;;;10.23;7.32;;;;;;;;;;5047711;28;20597;-42
2021/04/07 09:26:28;;;;;;;8.33;7.53;;;;;;;;;;5048437;28;20551;-42
2021/04/07 09:28:54;;;;;;;10.30;6.87;;;;;;;;;;5048202;28;20642;-43
2021/04/07 09:31:22;;;;;;;9.50;6.33;;;;;;;;;;5048182;28;20588;-43
2021/04/07 09:33:48;;;;;;;7.60;6.90;;;;;;;;;;5047906;28;20172;-43
2021/04/07 09:36:14;;;;;;;7.60;6.90;;;;;;;;;;5048059;28;20708;-43
2021/04/07 09:38:45;;;;;;;8.73;6.73;;;;;;;;;;5048269;28;21049;-43
2021/04/07 09:41:17;;;;;;;7.20;6.00;;;;;;;;;;5048040;28;20688;-42
2021/04/07 09:43:42;;;;;;;7.13;5.70;;;;;;;;;;5047864;28;20626;-41
2021/04/07 09:46:07;;;;;;;5.20;4.73;;;;;;;;;;5048272;28;21026;-42
2021/04/07 09:48:39;;;;;;;6.10;5.40;;;;;;;;;;5042783;28;20197;-42
2021/04/07 09:51:22;;;;;;;5.13;4.47;;;;;;;;;;5047397;28;20186;-42
2021/04/07 09:53:47;;;;;;;8.47;5.90;;;;;;;;;;5046891;28;20583;-42
2021/04/07 09:56:12;;;;;;;6.77;5.20;;;;;;;;;;5046759;28;20657;-42
2021/04/07 09:59:04;;;;;;;6.00;4.97;;;;;;;;;;5047638;28;20183;-41
2021/04/07 10:01:36;;;;;;;8.70;5.50;;;;;;;;;;5046024;28;20643;-42
2021/04/07 10:04:02;;;;;;;7.13;5.47;;;;;;;;;;5047002;28;21166;-43
2021/04/07 10:06:27;;;;;;;8.13;5.40;;;;;;;;;;5047954;28;20592;-43
2021/04/07 10:09:02;;;;;;;6.60;5.50;;;;;;;;;;5047677;28;20306;-43
2021/04/07 10:11:28;;;;;;;5.90;5.23;;;;;;;;;;5047413;28;20186;-43
2021/04/07 10:13:57;;;;;;;6.93;5.93;;;;;;;;;;5046716;28;20649;-43
2021/04/07 10:16:23;;;;;;;7.57;6.00;;;;;;;;;;5047186;28;20186;-43
2021/04/07 10:18:49;;;;;;;11.70;6.90;;;;;;;;;;5045885;28;20976;-45
2021/04/07 10:21:15;;;;;;;7.20;5.90;;;;;;;;;;5047567;28;20631;-50
2021/04/07 10:23:40;;;;;;;13.70;9.70;;;;;;;;;;5047025;28;20180;-42
2021/04/07 10:26:05;;;;;;;7.63;6.10;;;;;;;;;;5047118;28;20606;-43
2021/04/07 10:28:30;;;;;;;21.10;11.47;;;;;;;;;;5047452;28;20180;-43
2021/04/07 10:30:56;;;;;;;13.60;10.00;;;;;;;;;;5047319;28;20180;-43
2021/04/07 10:33:27;;;;;;;9.13;8.07;;;;;;;;;;5047137;28;20173;-43
2021/04/07 10:35:59;;;;;;;16.13;10.70;;;;;;;;;;5047126;28;20178;-43
2021/04/07 10:38:28;;;;;;;24.60;13.40;;;;;;;;;;5047256;28;20578;-42
2021/04/07 10:40:57;;;;;;;21.90;11.40;;;;;;;;;;5047479;28;20617;-42
2021/04/07 10:43:22;;;;;;;19.67;11.10;;;;;;;;;;5047180;28;20573;-43
2021/04/07 10:46:01;;;;;;;33.87;16.60;;;;;;;;;;5047342;28;20598;-43
2021/04/07 10:48:26;;;;;;;8.47;5.73;;;;;;;;;;5033746;28;20172;-43
2021/04/07 10:50:51;;;;;;;19.10;10.30;;;;;;;;;;5047345;28;20600;-50
2021/04/07 10:53:26;;;;;;;9.43;5.97;;;;;;;;;;5047299;28;20164;-43
2021/04/07 10:55:51;;;;;;;19.17;9.13;;;;;;;;;;5046916;28;20328;-43
2021/04/07 10:58:23;;;;;;;16.95;9.30;;;;;;;;;;5047196;28;20668;-43
2021/04/07 11:00:48;;;;;;;16.73;7.50;;;;;;;;;;5047313;28;20189;-43
2021/04/07 11:03:14;;;;;;;11.45;6.75;;;;;;;;;;5038478;28;20686;-42
2021/04/07 11:05:39;;;;;;;9.47;6.47;;;;;;;;;;5024346;28;20179;-42
2021/04/07 11:08:05;;;;;;;13.10;8.20;;;;;;;;;;5036502;28;20180;-43
2021/04/07 11:10:37;;;;;;;5.63;4.50;;;;;;;;;;5046324;28;20417;-43
2021/04/07 11:13:04;;;;;;;9.90;6.73;;;;;;;;;;5045856;28;20651;-43
2021/04/07 11:15:29;;;;;;;4.10;3.40;;;;;;;;;;5047387;28;20601;-43
2021/04/07 11:17:54;;;;;;;6.27;5.00;;;;;;;;;;5050674;28;21136;-43
2021/04/07 11:20:20;;;;;;;5.87;4.13;;;;;;;;;;5050600;28;20650;-44
2021/04/07 11:22:45;;;;;;;3.90;3.13;;;;;;;;;;5050650;28;20191;-42
2021/04/07 11:25:11;;;;;;;3.77;3.30;;;;;;;;;;5050035;28;21185;-42
2021/04/07 11:27:36;;;;;;;3.27;2.97;;;;;;;;;;5050521;28;20258;-42
2021/04/07 11:30:05;;;;;;;4.13;2.70;;;;;;;;;;5050647;28;20270;-42
2021/04/07 11:32:32;;;;;;;4.50;2.90;;;;;;;;;;5050226;28;20330;-42
2021/04/07 11:37:56;;;;;;;5.07;3.30;;;;;;;;;;5050696;28;20577;-43
2021/04/07 11:43:04;;;;;;;4.30;3.87;;;;;;;;;;5045097;28;21194;-43
2021/04/07 11:45:29;;;;;;;4.97;3.30;;;;;;;;;;5038504;28;20617;-41
2021/04/07 11:47:54;;;;;;;4.13;3.72;;;;;;;;;;5049044;28;20624;-42
2021/04/07 11:50:20;;;;;;;5.83;3.67;;;;;;;;;;5052007;28;20355;-42
2021/04/07 11:52:45;;;;;;;3.47;3.17;;;;;;;;;;5070715;28;20182;-42
2021/04/07 11:55:10;;;;;;;10.10;6.97;;;;;;;;;;5070025;28;20721;-43
2021/04/07 11:57:36;;;;;;;13.27;10.30;;;;;;;;;;5065363;28;20540;-42
2021/04/07 12:00:01;;;;;;;13.43;9.50;;;;;;;;;;5049967;28;20530;-43
2021/04/07 12:02:26;;;;;;;12.73;9.30;;;;;;;;;;5048306;28;20402;-43
2021/04/07 12:04:52;;;;;;;9.88;8.18;;;;;;;;;;5048341;28;20176;-43
2021/04/07 12:07:18;;;;;;;7.87;6.47;;;;;;;;;;5049038;28;20263;-43
2021/04/07 12:09:46;;;;;;;7.10;6.40;;;;;;;;;;5046960;28;20835;-43
2021/04/07 12:12:11;;;;;;;6.80;5.40;;;;;;;;;;5045329;28;20590;-43
2021/04/07 12:14:36;;;;;;;5.30;4.80;;;;;;;;;;5048798;28;20610;-44
2021/04/07 12:17:01;;;;;;;4.60;4.20;;;;;;;;;;5049609;28;20171;-44
2021/04/07 12:19:27;;;;;;;4.80;4.40;;;;;;;;;;5048319;28;20191;-42
2021/04/07 12:21:52;;;;;;;3.80;3.23;;;;;;;;;;5045029;28;20176;-43
2021/04/07 12:24:17;;;;;;;4.03;3.20;;;;;;;;;;5031296;28;20179;-45
2021/04/07 12:26:43;;;;;;;4.43;3.83;;;;;;;;;;5050678;28;20579;-46
2021/04/07 12:29:08;;;;;;;3.57;3.13;;;;;;;;;;5069235;28;20197;-43
2021/04/07 12:31:34;;;;;;;5.30;3.40;;;;;;;;;;5050028;28;20625;-43
2021/04/07 12:33:59;;;;;;;4.37;3.50;;;;;;;;;;5049053;28;20168;-43
2021/04/07 12:36:30;;;;;;;3.60;3.20;;;;;;;;;;5039551;28;20176;-42
2021/04/07 12:38:56;;;;;;;4.30;3.90;;;;;;;;;;5055193;28;20186;-43
2021/04/07 12:41:29;;;;;;;4.63;3.57;;;;;;;;;;5042967;28;20722;-42
2021/04/07 12:43:54;;;;;;;3.57;3.27;;;;;;;;;;5037517;28;20678;-44
2021/04/07 12:46:19;;;;;;;3.63;3.03;;;;;;;;;;5045626;28;21167;-41
2021/04/07 12:48:47;;;;;;;3.80;2.93;;;;;;;;;;5049139;28;20212;-45
2021/04/07 12:51:13;;;;;;;3.17;2.90;;;;;;;;;;5045531;28;20168;-42
2021/04/07 12:53:38;;;;;;;4.80;3.10;;;;;;;;;;5049360;28;20587;-43
2021/04/07 12:56:03;;;;;;;3.40;3.10;;;;;;;;;;5048196;28;20588;-43
2021/04/07 12:58:28;;;;;;;4.57;2.93;;;;;;;;;;5049220;28;20171;-43
2021/04/07 13:00:54;;;;;;;4.87;2.90;;;;;;;;;;5049379;28;20529;-41
2021/04/07 13:03:19;;;;;;;4.40;3.40;;;;;;;;;;5062435;28;20175;-43
2021/04/07 13:05:44;;;;;;;3.00;2.70;;;;;;;;;;5055382;28;20778;-46
2021/04/07 13:08:09;;;;;;;5.83;3.10;;;;;;;;;;5047972;28;20170;-44
2021/04/07 13:10:39;;;;;;;5.87;3.80;;;;;;;;;;5048686;28;20292;-46
2021/04/07 13:13:05;;;;;;;4.83;3.33;;;;;;;;;;5049394;28;20173;-44
2021/04/07 13:15:30;;;;;;;5.37;3.33;;;;;;;;;;5048565;28;20595;-45
2021/04/07 13:17:55;;;;;;;4.23;3.60;;;;;;;;;;5049142;28;20172;-44
2021/04/07 13:20:22;;;;;;;5.25;3.65;;;;;;;;;;5048912;28;20182;-45
2021/04/07 13:22:48;;;;;;;6.90;3.53;;;;;;;;;;5046250;28;20180;-45
2021/04/07 13:25:13;;;;;;;3.20;2.90;;;;;;;;;;5048064;28;21201;-43
2021/04/07 13:27:38;;;;;;;4.40;3.70;;;;;;;;;;5048603;28;20670;-42
2021/04/07 13:30:05;;;;;;;4.03;3.40;;;;;;;;;;5040821;28;20204;-43
2021/04/07 13:32:31;;;;;;;5.70;3.13;;;;;;;;;;5039134;28;20173;-44
2021/04/07 13:35:05;;;;;;;4.83;3.87;;;;;;;;;;5056429;28;20876;-43
2021/04/07 13:40:33;;;;;;;3.77;3.23;;;;;;;;;;5037463;28;20618;-44
2021/04/07 13:42:58;;;;;;;4.60;3.93;;;;;;;;;;5028640;28;21160;-45
2021/04/07 13:45:25;;;;;;;3.97;3.30;;;;;;;;;;5028857;28;20579;-43
2021/04/07 13:47:52;;;;;;;4.50;3.93;;;;;;;;;;5044415;28;20273;-42
2021/04/07 13:50:17;;;;;;;4.20;3.20;;;;;;;;;;5048082;28;20657;-43
2021/04/07 13:52:43;;;;;;;4.40;3.97;;;;;;;;;;5048380;28;21010;-43
2021/04/07 13:55:08;;;;;;;4.50;3.30;;;;;;;;;;5048214;28;20259;-41
2021/04/07 13:57:34;;;;;;;4.03;3.40;;;;;;;;;;5047712;28;20180;-43
2021/04/07 14:00:00;;;;;;;3.23;2.97;;;;;;;;;;5048187;28;20179;-44
2021/04/07 14:02:27;;;;;;;3.63;3.33;;;;;;;;;;5047939;28;20183;-47
2021/04/07 14:04:53;;;;;;;4.53;3.60;;;;;;;;;;5048522;28;21176;-41
2021/04/07 14:07:18;;;;;;;4.40;4.00;;;;;;;;;;5047428;28;20678;-44
2021/04/07 14:09:48;;;;;;;3.13;2.83;;;;;;;;;;5047121;28;20198;-43
2021/04/07 14:12:14;;;;;;;4.77;3.67;;;;;;;;;;5048418;28;20157;-44
2021/04/07 14:14:40;;;;;;;4.30;3.50;;;;;;;;;;5045190;28;20612;-44
2021/04/07 14:17:05;;;;;;;3.90;3.07;;;;;;;;;;5047130;28;20773;-44
2021/04/07 14:19:30;;;;;;;4.60;3.23;;;;;;;;;;5048223;28;20181;-44
2021/04/07 14:21:56;;;;;;;4.07;3.57;;;;;;;;;;5047465;28;20691;-44
2021/04/07 14:24:21;;;;;;;3.27;2.97;;;;;;;;;;5047623;28;20292;-44
2021/04/07 14:26:47;;;;;;;5.20;3.23;;;;;;;;;;5046859;28;20633;-46
2021/04/07 14:29:12;;;;;;;3.40;2.90;;;;;;;;;;5047130;28;20202;-45
2021/04/07 14:31:38;;;;;;;3.07;2.77;;;;;;;;;;5047321;28;20751;-44
2021/04/07 14:34:04;;;;;;;3.57;3.23;;;;;;;;;;5047601;28;20749;-45
2021/04/07 14:36:29;;;;;;;3.43;3.00;;;;;;;;;;5049017;28;20697;-44
2021/04/07 14:38:55;;;;;;;10.40;6.87;;;;;;;;;;5044306;28;20874;-44
2021/04/07 14:41:20;;;;;;;16.57;9.13;;;;;;;;;;5046568;28;20200;-42
2021/04/07 14:43:45;;;;;;;7.90;5.50;;;;;;;;;;5047085;28;20553;-41
2021/04/07 14:46:11;;;;;;;13.73;8.30;;;;;;;;;;5046909;28;20174;-43